Time;durP1;ratioP1;P1;durP2;ratioP2;P2;SDS_P1;SDS_P2;PMS_P1;PMS_P2;Temp;Humidity;BMP_temperature;BMP_pressure;BME280_temperature;BME280_humidity;BME280_pressure;Samples;Min_cycle;Max_cycle;Signal;HPM_P1;HPM_P2
2022/09/07 00:02:05;;;;;;;14.55;8.75;;;19.00;99.90;;;;;;5110904;28;20048;-72
2022/09/07 00:04:32;;;;;;;11.68;8.30;;;19.00;99.90;;;;;;5112072;28;20396;-71
2022/09/07 00:06:59;;;;;;;11.23;8.55;;;19.00;99.90;;;;;;5111853;28;20055;-70
2022/09/07 00:09:26;;;;;;;9.23;8.30;;;18.90;99.90;;;;;;5111154;28;20142;-72
2022/09/07 00:11:53;;;;;;;11.48;7.95;;;18.90;99.90;;;;;;5112018;28;20058;-71
2022/09/07 00:14:20;;;;;;;12.88;9.32;;;18.90;99.90;;;;;;5111264;28;20048;-72
2022/09/07 00:16:47;;;;;;;12.95;8.57;;;18.80;99.90;;;;;;5112837;28;20068;-72
2022/09/07 00:19:15;;;;;;;11.52;9.80;;;18.80;99.90;;;;;;5112935;28;20056;-71
2022/09/07 00:21:42;;;;;;;11.07;8.75;;;18.70;99.90;;;;;;5111344;28;20063;-71
2022/09/07 00:24:09;;;;;;;9.90;8.48;;;18.70;99.90;;;;;;5111576;28;20384;-71
2022/09/07 00:26:36;;;;;;;14.15;8.75;;;18.70;99.90;;;;;;5111872;28;20060;-72
2022/09/07 00:29:05;;;;;;;12.35;8.82;;;18.60;99.90;;;;;;5112499;28;20449;-71
2022/09/07 00:31:32;;;;;;;12.05;9.23;;;18.70;99.90;;;;;;5111449;28;20043;-71
2022/09/07 00:34:00;;;;;;;13.35;9.23;;;18.60;99.90;;;;;;5113223;28;20101;-71
2022/09/07 00:36:29;;;;;;;12.25;8.88;;;18.50;99.90;;;;;;5112376;28;20048;-71
2022/09/07 00:38:56;;;;;;;10.85;9.00;;;18.50;99.90;;;;;;5111426;28;20055;-71
2022/09/07 00:41:24;;;;;;;11.70;9.15;;;18.50;99.90;;;;;;5112937;28;20134;-71
2022/09/07 00:43:52;;;;;;;15.00;9.45;;;18.40;99.90;;;;;;5114204;28;20040;-71
2022/09/07 00:46:21;;;;;;;12.88;9.32;;;18.40;99.90;;;;;;5114921;28;20059;-71
2022/09/07 00:48:52;;;;;;;13.00;8.50;;;18.40;99.90;;;;;;5116352;28;20086;-71
2022/09/07 00:51:24;;;;;;;11.68;8.60;;;18.40;99.90;;;;;;5114697;28;20047;-71
2022/09/07 00:53:57;;;;;;;11.23;8.82;;;18.40;99.90;;;;;;5115677;28;20097;-71
2022/09/07 00:56:28;;;;;;;12.88;9.07;;;18.30;99.90;;;;;;5115093;28;20097;-71
2022/09/07 00:58:55;;;;;;;10.50;8.35;;;18.30;99.90;;;;;;5116129;28;20546;-72
2022/09/07 01:01:22;;;;;;;13.88;8.88;;;18.30;99.90;;;;;;5115496;28;20063;-72
2022/09/07 01:03:52;;;;;;;15.80;8.90;;;18.20;99.90;;;;;;5115510;28;20048;-71
2022/09/07 01:06:22;;;;;;;12.40;9.27;;;18.20;99.90;;;;;;5115109;28;20052;-71
2022/09/07 01:08:50;;;;;;;11.40;9.15;;;18.20;99.90;;;;;;5115210;28;20051;-72
2022/09/07 01:11:19;;;;;;;13.43;9.30;;;18.20;99.90;;;;;;5114436;28;20134;-72
2022/09/07 01:13:48;;;;;;;12.27;9.57;;;18.20;99.90;;;;;;5114388;28;20055;-72
2022/09/07 01:16:27;;;;;;;13.90;9.77;;;18.20;99.90;;;;;;5114885;28;20043;-72
2022/09/07 01:19:04;;;;;;;12.65;9.98;;;18.10;99.90;;;;;;5113967;28;20558;-73
2022/09/07 01:21:51;;;;;;;16.02;10.82;;;18.10;99.90;;;;;;5114477;28;20082;-72
2022/09/07 01:24:39;;;;;;;12.95;9.70;;;18.10;99.90;;;;;;5114882;28;20127;-72
2022/09/07 01:27:40;;;;;;;11.57;9.32;;;18.10;99.90;;;;;;5114325;28;20059;-72
2022/09/07 01:30:09;;;;;;;13.57;8.50;;;18.00;99.90;;;;;;5114733;28;20391;-73
2022/09/07 01:32:50;;;;;;;16.40;11.55;;;17.90;99.90;;;;;;5115190;28;20051;-72
2022/09/07 01:35:24;;;;;;;23.58;12.00;;;17.80;99.90;;;;;;5114560;28;20096;-75
2022/09/07 01:37:57;;;;;;;23.73;13.65;;;17.60;99.90;;;;;;5114371;28;20044;-71
2022/09/07 01:40:34;;;;;;;26.77;14.55;;;17.40;99.90;;;;;;5114415;28;20051;-72
2022/09/07 01:43:06;;;;;;;35.80;12.88;;;17.10;99.90;;;;;;5115640;28;20408;-78
2022/09/07 01:45:37;;;;;;;25.85;13.88;;;16.90;99.90;;;;;;5114259;28;20051;-75
2022/09/07 01:48:07;;;;;;;52.50;18.10;;;16.50;99.90;;;;;;5114621;28;20092;-74
2022/09/07 01:50:39;;;;;;;25.80;16.40;;;16.30;99.90;;;;;;5114243;28;20490;-72
2022/09/07 01:53:14;;;;;;;25.20;17.67;;;16.30;99.90;;;;;;5113335;28;20059;-71
2022/09/07 01:55:45;;;;;;;28.92;17.55;;;16.20;99.90;;;;;;5114220;28;20043;-71
2022/09/07 01:58:18;;;;;;;18.50;12.18;;;16.20;99.90;;;;;;5115092;28;20487;-71
2022/09/07 02:00:51;;;;;;;24.27;18.17;;;16.20;99.90;;;;;;5113144;28;20051;-71
2022/09/07 02:03:21;;;;;;;21.45;16.42;;;16.30;99.90;;;;;;5114020;28;20116;-72
2022/09/07 02:05:53;;;;;;;23.38;16.52;;;16.30;99.90;;;;;;5114492;28;20040;-72
2022/09/07 02:08:26;;;;;;;28.48;17.98;;;16.30;99.90;;;;;;5113911;28;20087;-71
2022/09/07 02:10:57;;;;;;;17.83;13.20;;;16.30;99.90;;;;;;5113792;28;20547;-71
2022/09/07 02:13:32;;;;;;;21.85;15.10;;;16.40;99.90;;;;;;5114776;28;20213;-71
2022/09/07 02:16:02;;;;;;;21.33;13.48;;;16.40;99.90;;;;;;5114455;28;20051;-70
2022/09/07 02:18:33;;;;;;;21.38;12.80;;;16.40;99.90;;;;;;5113608;28;20058;-71
2022/09/07 02:21:01;;;;;;;19.90;14.18;;;16.40;99.90;;;;;;5114030;28;20559;-70
2022/09/07 02:23:33;;;;;;;24.73;14.90;;;16.50;99.90;;;;;;5113402;28;20052;-69
2022/09/07 02:26:03;;;;;;;18.48;13.18;;;16.50;99.90;;;;;;5114836;28;20101;-70
2022/09/07 02:28:34;;;;;;;20.27;13.43;;;16.50;99.90;;;;;;5113793;28;20055;-69
2022/09/07 02:31:01;;;;;;;15.60;10.73;;;16.50;99.90;;;;;;5114249;28;20047;-69
2022/09/07 02:33:29;;;;;;;19.35;10.80;;;16.50;99.90;;;;;;5113130;28;20043;-69
2022/09/07 02:35:56;;;;;;;15.23;9.18;;;16.50;99.90;;;;;;5112451;28;20069;-70
2022/09/07 02:38:24;;;;;;;11.95;7.55;;;16.50;99.90;;;;;;5114455;28;20491;-70
2022/09/07 02:40:51;;;;;;;13.10;7.40;;;16.60;99.90;;;;;;5114227;28;20104;-70
2022/09/07 02:43:20;;;;;;;11.75;7.13;;;16.60;99.90;;;;;;5112179;28;20050;-70
2022/09/07 02:46:01;;;;;;;11.98;8.27;;;16.50;99.90;;;;;;5114416;28;20048;-70
2022/09/07 02:48:36;;;;;;;11.45;7.90;;;16.40;99.90;;;;;;5114380;28;20084;-70
2022/09/07 02:51:13;;;;;;;12.18;8.63;;;16.40;99.90;;;;;;5113330;27;20051;-70
2022/09/07 02:53:57;;;;;;;12.68;8.38;;;16.40;99.90;;;;;;5113122;28;20051;-70
2022/09/07 02:56:39;;;;;;;12.38;9.00;;;16.40;99.90;;;;;;5112342;28;20051;-70
2022/09/07 02:59:18;;;;;;;15.52;11.27;;;16.40;99.90;;;;;;5112424;28;20112;-71
2022/09/07 03:01:56;;;;;;;13.27;9.57;;;16.50;99.90;;;;;;5112842;28;20108;-70
2022/09/07 03:04:34;;;;;;;13.90;9.63;;;16.50;99.90;;;;;;5111910;28;20043;-71
2022/09/07 03:07:08;;;;;;;13.15;9.60;;;16.50;99.90;;;;;;5112272;28;20108;-70
2022/09/07 03:09:39;;;;;;;13.07;9.75;;;16.50;99.90;;;;;;5112651;28;20097;-71
2022/09/07 03:12:07;;;;;;;12.82;9.80;;;16.50;99.90;;;;;;5112968;28;20058;-71
2022/09/07 03:14:35;;;;;;;17.27;10.50;;;16.50;99.90;;;;;;5113849;28;20091;-71
2022/09/07 03:17:03;;;;;;;11.82;9.25;;;16.60;99.90;;;;;;5113922;28;20061;-70
2022/09/07 03:19:30;;;;;;;15.25;10.40;;;16.60;99.90;;;;;;5111602;28;20056;-70
2022/09/07 03:21:57;;;;;;;15.65;9.93;;;16.60;99.90;;;;;;5113818;28;20050;-70
2022/09/07 03:24:23;;;;;;;14.15;10.18;;;16.60;99.90;;;;;;5112818;28;20043;-71
2022/09/07 03:26:50;;;;;;;16.52;11.60;;;16.60;99.90;;;;;;5113204;28;20499;-71
2022/09/07 03:29:18;;;;;;;17.70;10.35;;;16.60;99.90;;;;;;5112053;28;20097;-70
2022/09/07 03:31:45;;;;;;;15.18;9.85;;;16.60;99.90;;;;;;5111859;28;20047;-69
2022/09/07 03:34:14;;;;;;;13.90;9.70;;;16.60;99.90;;;;;;5112180;28;20074;-70
2022/09/07 03:36:41;;;;;;;13.02;9.93;;;16.60;99.90;;;;;;5112307;28;20050;-70
2022/09/07 03:39:09;;;;;;;12.93;9.38;;;16.60;99.90;;;;;;5111327;28;20543;-70
2022/09/07 03:41:36;;;;;;;14.07;10.10;;;16.60;99.90;;;;;;5112535;28;20139;-69
2022/09/07 03:44:05;;;;;;;11.20;9.43;;;16.60;99.90;;;;;;5112210;28;20112;-70
2022/09/07 03:46:32;;;;;;;16.40;9.32;;;16.60;99.90;;;;;;5112726;28;20105;-70
2022/09/07 03:48:59;;;;;;;13.55;8.95;;;16.60;99.90;;;;;;5113173;28;20057;-70
2022/09/07 03:51:27;;;;;;;12.10;7.50;;;16.70;99.90;;;;;;5103091;28;20043;-71
2022/09/07 03:53:54;;;;;;;9.52;5.82;;;16.80;99.90;;;;;;5093470;28;20479;-71
2022/09/07 03:56:24;;;;;;;13.93;7.93;;;16.80;99.90;;;;;;5111339;28;20047;-70
2022/09/07 03:58:53;;;;;;;10.40;5.82;;;17.00;99.90;;;;;;5111340;28;20097;-70
2022/09/07 04:01:23;;;;;;;7.68;6.05;;;17.30;99.90;;;;;;5092012;28;20104;-70
2022/09/07 04:03:50;;;;;;;9.52;6.30;;;17.10;99.90;;;;;;5110707;28;20051;-70
2022/09/07 04:06:18;;;;;;;5.45;4.38;;;17.10;99.90;;;;;;5111307;28;20548;-71
2022/09/07 04:08:46;;;;;;;5.32;4.25;;;17.30;99.90;;;;;;5110635;28;20521;-71
2022/09/07 04:11:15;;;;;;;4.90;4.40;;;17.30;99.90;;;;;;5110813;28;20044;-71
2022/09/07 04:13:42;;;;;;;7.18;4.68;;;17.40;99.90;;;;;;5110979;28;20044;-71
2022/09/07 04:16:11;;;;;;;6.13;4.95;;;17.40;99.90;;;;;;5112231;28;20040;-71
2022/09/07 04:18:38;;;;;;;6.50;5.35;;;17.30;99.90;;;;;;5098036;28;20055;-70
2022/09/07 04:21:05;;;;;;;7.60;4.90;;;17.20;99.90;;;;;;5114241;28;20131;-71
2022/09/07 04:23:32;;;;;;;7.00;5.85;;;17.20;99.90;;;;;;5096967;28;20055;-70
2022/09/07 04:26:00;;;;;;;7.70;5.50;;;17.20;99.90;;;;;;5117290;27;20402;-70
2022/09/07 04:28:27;;;;;;;9.68;5.35;;;17.30;99.90;;;;;;5113704;28;20503;-70
2022/09/07 04:30:54;;;;;;;5.95;4.70;;;17.30;99.90;;;;;;5096258;28;20047;-70
2022/09/07 04:33:21;;;;;;;8.30;6.20;;;17.10;99.90;;;;;;5114533;28;20048;-70
2022/09/07 04:35:48;;;;;;;7.78;5.80;;;17.10;99.90;;;;;;5095955;28;20518;-70
2022/09/07 04:38:16;;;;;;;7.32;5.35;;;17.20;99.90;;;;;;5114750;28;20105;-70
2022/09/07 04:40:43;;;;;;;9.55;6.15;;;17.10;99.90;;;;;;5096818;28;20055;-72
2022/09/07 04:43:12;;;;;;;10.13;6.30;;;17.10;99.90;;;;;;5108463;28;20048;-72
2022/09/07 04:45:40;;;;;;;8.70;5.47;;;17.00;99.90;;;;;;5102202;27;20051;-72
2022/09/07 04:48:07;;;;;;;9.10;6.57;;;17.00;99.90;;;;;;5104363;28;20059;-71
2022/09/07 04:50:34;;;;;;;7.43;4.65;;;17.10;99.90;;;;;;5134810;27;20513;-72
2022/09/07 04:53:01;;;;;;;10.82;6.47;;;17.20;99.90;;;;;;5103668;28;20051;-71
2022/09/07 04:55:28;;;;;;;10.52;7.50;;;17.20;99.90;;;;;;5104164;28;20633;-71
2022/09/07 04:57:54;;;;;;;9.13;6.63;;;17.00;99.90;;;;;;5111439;28;20499;-72
2022/09/07 05:00:23;;;;;;;10.82;7.63;;;17.00;99.90;;;;;;5095970;28;20053;-71
2022/09/07 05:02:50;;;;;;;9.10;7.57;;;16.90;99.90;;;;;;5098284;28;20119;-72
2022/09/07 05:05:17;;;;;;;10.30;8.48;;;16.80;99.90;;;;;;5113299;28;20183;-71
2022/09/07 05:07:44;;;;;;;13.23;8.27;;;16.80;99.90;;;;;;5114276;28;20054;-71
2022/09/07 05:10:11;;;;;;;14.82;9.55;;;16.70;99.90;;;;;;5113300;28;20563;-72
2022/09/07 05:12:38;;;;;;;14.57;9.35;;;16.70;99.90;;;;;;5106790;28;20490;-71
2022/09/07 05:15:06;;;;;;;12.75;9.02;;;16.70;99.90;;;;;;5114219;28;20047;-71
2022/09/07 05:17:34;;;;;;;16.38;11.40;;;16.70;99.90;;;;;;5114299;28;20055;-72
2022/09/07 05:20:01;;;;;;;10.63;9.32;;;16.70;99.90;;;;;;5095003;28;20498;-71
2022/09/07 05:22:28;;;;;;;16.40;12.25;;;16.60;99.90;;;;;;5096011;28;20043;-71
2022/09/07 05:24:55;;;;;;;15.95;9.38;;;16.60;99.90;;;;;;5094291;28;20048;-72
2022/09/07 05:27:21;;;;;;;17.00;12.10;;;16.70;99.90;;;;;;5114445;28;20063;-71
2022/09/07 05:29:48;;;;;;;14.82;12.23;;;16.80;99.90;;;;;;5094401;28;20580;-72
2022/09/07 05:32:15;;;;;;;11.35;9.65;;;16.90;99.90;;;;;;5094429;28;20040;-72
2022/09/07 05:34:43;;;;;;;15.55;12.70;;;16.90;99.90;;;;;;5095581;28;20055;-72
2022/09/07 05:37:10;;;;;;;16.42;12.70;;;17.10;99.90;;;;;;5096760;28;20490;-72
2022/09/07 05:39:37;;;;;;;18.17;13.20;;;17.10;99.90;;;;;;5112945;28;20452;-72
2022/09/07 05:42:04;;;;;;;17.23;14.65;;;17.00;99.90;;;;;;5113123;28;20043;-71
2022/09/07 05:44:31;;;;;;;18.33;12.77;;;17.00;99.90;;;;;;5104117;28;20135;-72
2022/09/07 05:46:58;;;;;;;21.63;15.93;;;17.00;99.90;;;;;;5096188;28;20039;-71
2022/09/07 05:49:25;;;;;;;19.23;15.60;;;16.90;99.90;;;;;;5095230;28;20525;-71
2022/09/07 05:51:53;;;;;;;18.52;14.82;;;16.90;99.90;;;;;;5113865;28;20394;-70
2022/09/07 05:54:20;;;;;;;19.58;15.50;;;16.80;99.90;;;;;;5113412;28;20407;-72
2022/09/07 05:56:47;;;;;;;20.13;15.38;;;16.70;99.90;;;;;;5093697;28;20445;-71
2022/09/07 05:59:14;;;;;;;19.15;14.10;;;16.70;99.90;;;;;;5112744;28;20055;-71
2022/09/07 06:01:41;;;;;;;19.17;15.40;;;16.70;99.90;;;;;;5095406;28;20441;-72
2022/09/07 06:04:07;;;;;;;22.40;16.65;;;16.70;99.90;;;;;;5096738;28;20441;-73
2022/09/07 06:06:38;;;;;;;18.80;15.18;;;16.60;99.90;;;;;;5094199;28;20047;-71
2022/09/07 06:09:10;;;;;;;20.23;16.52;;;16.60;99.90;;;;;;5094789;28;20083;-72
2022/09/07 06:11:37;;;;;;;21.88;16.60;;;16.70;99.90;;;;;;5096326;28;20048;-72
2022/09/07 06:14:03;;;;;;;20.83;16.42;;;16.70;99.90;;;;;;5096162;28;20115;-72
2022/09/07 06:16:33;;;;;;;19.27;16.25;;;16.60;99.90;;;;;;5099605;27;20441;-74
2022/09/07 06:19:05;;;;;;;20.93;16.90;;;16.60;99.90;;;;;;5123395;27;20043;-75
2022/09/07 06:21:36;;;;;;;22.33;17.73;;;16.60;99.90;;;;;;5113593;28;20044;-74
2022/09/07 06:24:03;;;;;;;21.02;16.50;;;16.60;99.90;;;;;;5103344;28;20058;-75
2022/09/07 06:26:32;;;;;;;21.23;17.52;;;16.60;99.90;;;;;;5114290;28;20063;-76
2022/09/07 06:28:59;;;;;;;26.13;17.45;;;16.70;99.90;;;;;;5112378;28;20063;-76
2022/09/07 06:31:27;;;;;;;24.80;18.00;;;16.80;99.90;;;;;;5112913;28;20452;-77
2022/09/07 06:33:55;;;;;;;27.05;17.73;;;16.80;99.90;;;;;;5114292;28;20051;-76
2022/09/07 06:36:26;;;;;;;23.80;17.98;;;16.80;99.90;;;;;;5113592;28;20054;-76
2022/09/07 06:38:54;;;;;;;22.25;17.55;;;16.80;99.90;;;;;;5114459;28;20491;-77
2022/09/07 06:41:22;;;;;;;21.35;17.33;;;16.80;99.90;;;;;;5095291;28;20087;-77
2022/09/07 06:43:51;;;;;;;23.45;17.80;;;16.80;99.90;;;;;;5114047;28;20047;-77
2022/09/07 06:46:17;;;;;;;24.75;18.45;;;16.80;99.90;;;;;;5095718;28;20047;-77
2022/09/07 06:48:44;;;;;;;25.10;17.48;;;16.80;99.90;;;;;;5116255;27;20051;-77
2022/09/07 06:51:14;;;;;;;20.58;17.08;;;16.80;99.90;;;;;;5134670;27;20054;-76
2022/09/07 06:53:41;;;;;;;22.90;17.85;;;16.80;99.90;;;;;;5084747;27;20071;-76
2022/09/07 06:56:10;;;;;;;24.80;18.80;;;16.80;99.90;;;;;;5133674;27;20511;-76
2022/09/07 06:58:37;;;;;;;24.70;19.27;;;16.70;99.90;;;;;;5134516;27;20509;-76
2022/09/07 07:01:10;;;;;;;27.60;19.70;;;16.80;99.90;;;;;;5115854;27;20506;-76
2022/09/07 07:03:37;;;;;;;28.63;22.00;;;16.80;99.90;;;;;;5133874;27;20110;-75
2022/09/07 07:06:04;;;;;;;28.30;21.85;;;16.80;99.90;;;;;;5115799;27;20100;-75
2022/09/07 07:08:31;;;;;;;34.22;22.35;;;16.90;99.90;;;;;;5134376;27;20054;-75
2022/09/07 07:11:02;;;;;;;29.55;23.05;;;16.80;99.90;;;;;;5133495;27;20157;-75
2022/09/07 07:13:29;;;;;;;32.55;23.67;;;16.90;99.90;;;;;;5116239;27;20107;-75
2022/09/07 07:16:03;;;;;;;33.45;25.02;;;16.90;99.90;;;;;;5115833;27;20451;-75
2022/09/07 07:18:32;;;;;;;33.85;24.20;;;16.90;99.90;;;;;;5132388;27;20432;-76
2022/09/07 07:21:01;;;;;;;32.72;23.25;;;16.90;99.90;;;;;;5132992;27;20054;-75
2022/09/07 07:23:28;;;;;;;28.85;22.42;;;16.90;99.90;;;;;;5115252;27;20047;-76
2022/09/07 07:25:55;;;;;;;26.90;21.50;;;17.00;99.90;;;;;;5115394;27;20095;-74
2022/09/07 07:28:22;;;;;;;27.08;21.65;;;17.00;99.90;;;;;;5115524;27;20533;-72
2022/09/07 07:30:54;;;;;;;24.25;19.45;;;17.10;99.90;;;;;;5114952;27;20116;-73
2022/09/07 07:33:41;;;;;;;22.48;18.15;;;17.10;99.90;;;;;;5115724;27;20141;-72
2022/09/07 07:36:12;;;;;;;26.27;19.25;;;17.10;99.90;;;;;;5133127;27;20156;-72
2022/09/07 07:38:39;;;;;;;22.15;18.58;;;17.10;99.90;;;;;;5133286;27;20039;-72
2022/09/07 07:41:06;;;;;;;21.60;17.90;;;17.20;99.90;;;;;;5133885;27;20047;-72
2022/09/07 07:43:33;;;;;;;21.65;18.17;;;17.20;99.90;;;;;;5133991;27;20085;-71
2022/09/07 07:46:01;;;;;;;24.98;19.23;;;17.30;99.90;;;;;;5132897;27;20503;-72
2022/09/07 07:48:28;;;;;;;21.13;17.55;;;17.30;99.90;;;;;;5133584;27;20050;-72
2022/09/07 07:50:59;;;;;;;23.67;18.15;;;17.30;99.90;;;;;;5133167;27;20104;-72
2022/09/07 07:53:28;;;;;;;24.42;19.27;;;17.30;99.90;;;;;;5114496;28;20054;-72
2022/09/07 07:55:58;;;;;;;23.10;18.92;;;17.40;99.90;;;;;;5115130;28;20490;-74
2022/09/07 07:58:26;;;;;;;22.70;19.45;;;17.40;99.90;;;;;;5133774;28;20092;-74
2022/09/07 08:00:53;;;;;;;25.98;19.67;;;17.50;99.90;;;;;;5114600;28;20055;-74
2022/09/07 08:03:20;;;;;;;22.55;18.50;;;17.50;99.90;;;;;;5133512;28;20047;-73
2022/09/07 08:05:46;;;;;;;27.23;19.65;;;17.60;99.90;;;;;;5132574;28;20083;-74
2022/09/07 08:08:14;;;;;;;24.60;19.55;;;17.70;99.90;;;;;;5133477;28;20511;-73
2022/09/07 08:10:42;;;;;;;23.38;18.70;;;17.70;99.90;;;;;;5133812;28;20448;-73
2022/09/07 08:13:09;;;;;;;25.90;21.40;;;17.80;99.90;;;;;;5114299;28;20055;-73
2022/09/07 08:15:43;;;;;;;24.90;19.48;;;17.80;99.90;;;;;;5115153;28;20055;-73
2022/09/07 08:18:10;;;;;;;27.38;21.58;;;17.80;99.90;;;;;;5115366;28;20047;-73
2022/09/07 08:20:37;;;;;;;26.40;19.80;;;18.00;99.90;;;;;;5114369;28;20047;-73
2022/09/07 08:23:06;;;;;;;24.55;20.92;;;18.10;99.90;;;;;;5110456;28;20048;-73
2022/09/07 08:25:33;;;;;;;27.08;20.02;;;18.20;99.90;;;;;;5094802;28;20063;-73
2022/09/07 08:28:02;;;;;;;22.52;18.75;;;18.50;99.90;;;;;;5111396;28;20498;-73
2022/09/07 08:30:29;;;;;;;21.58;17.92;;;18.70;99.90;;;;;;5094514;28;20081;-73
2022/09/07 08:32:56;;;;;;;24.13;19.13;;;18.70;99.90;;;;;;5095007;28;20137;-73
2022/09/07 08:35:23;;;;;;;21.73;18.88;;;18.80;99.90;;;;;;5094043;28;20047;-73
2022/09/07 08:37:50;;;;;;;22.33;19.92;;;18.90;99.90;;;;;;5112717;28;20043;-73
2022/09/07 08:40:17;;;;;;;22.45;18.30;;;18.90;99.90;;;;;;5094484;28;20055;-72
2022/09/07 08:42:56;;;;;;;22.63;19.15;;;18.80;99.90;;;;;;5094033;28;20109;-73
2022/09/07 08:45:29;;;;;;;25.38;18.67;;;18.80;99.90;;;;;;5094668;28;20109;-73
2022/09/07 08:47:57;;;;;;;23.90;19.77;;;18.70;99.90;;;;;;5111840;28;20044;-72
2022/09/07 08:50:28;;;;;;;24.15;18.85;;;18.70;99.90;;;;;;5094848;28;20491;-72
2022/09/07 08:52:58;;;;;;;25.92;19.38;;;18.60;99.90;;;;;;5112860;28;20406;-73
2022/09/07 08:55:28;;;;;;;25.17;20.02;;;18.60;99.90;;;;;;5111802;28;20490;-73
2022/09/07 08:58:00;;;;;;;;;;;18.60;99.90;;;;;;5094830;28;20547;-73
2022/09/07 09:00:29;;;;;;;24.58;19.33;;;18.60;99.90;;;;;;5094633;28;20431;-73
2022/09/07 09:02:57;;;;;;;23.42;19.20;;;18.60;99.90;;;;;;5093959;28;20056;-73
2022/09/07 09:05:31;;;;;;;24.48;19.70;;;18.70;99.90;;;;;;5097651;28;20047;-73
2022/09/07 09:08:13;;;;;;;25.58;19.80;;;18.90;99.90;;;;;;5115876;28;20062;-73
2022/09/07 09:10:52;;;;;;;25.98;19.00;;;19.10;99.90;;;;;;5115410;28;20051;-73
2022/09/07 09:13:26;;;;;;;23.90;18.45;;;19.70;99.90;;;;;;5116090;28;20048;-74
2022/09/07 09:16:01;;;;;;;20.63;17.10;;;20.10;99.90;;;;;;5097685;28;20051;-74
2022/09/07 09:18:39;;;;;;;21.70;17.95;;;20.30;99.90;;;;;;5097701;28;20047;-75
2022/09/07 09:21:14;;;;;;;21.80;17.17;;;20.30;99.90;;;;;;5117718;27;20530;-73
2022/09/07 09:23:43;;;;;;;20.63;15.88;;;20.50;99.90;;;;;;5095536;28;20487;-73
2022/09/07 09:26:14;;;;;;;21.45;16.35;;;20.70;99.90;;;;;;5132026;27;20554;-71
2022/09/07 09:28:41;;;;;;;20.80;16.13;;;21.00;99.90;;;;;;5098464;27;20061;-71
2022/09/07 09:31:18;;;;;;;17.50;15.52;;;21.10;99.90;;;;;;5111727;28;20047;-71
2022/09/07 09:34:04;;;;;;;19.25;15.85;;;21.40;99.90;;;;;;5096403;28;20525;-71
2022/09/07 09:36:35;;;;;;;19.70;14.93;;;21.90;99.90;;;;;;5107618;27;20100;-71
2022/09/07 09:39:26;;;;;;;17.60;15.20;;;22.90;99.90;;;;;;5114260;28;20047;-72
2022/09/07 09:41:54;;;;;;;17.40;14.93;;;23.80;99.90;;;;;;5114214;27;20047;-72
2022/09/07 09:44:22;;;;;;;16.40;13.88;;;24.20;99.90;;;;;;5113289;28;20055;-73
2022/09/07 09:46:53;;;;;;;15.50;13.32;;;24.40;99.90;;;;;;5105509;28;20039;-74
2022/09/07 09:49:23;;;;;;;19.30;15.05;;;24.10;99.90;;;;;;5096539;28;20083;-73
2022/09/07 09:51:52;;;;;;;16.08;13.70;;;23.90;99.90;;;;;;5113114;28;20070;-73
2022/09/07 09:54:24;;;;;;;15.63;12.95;;;24.00;99.90;;;;;;5114561;27;20109;-73
2022/09/07 09:56:51;;;;;;;22.13;12.88;;;24.10;99.90;;;;;;5101641;27;20093;-72
2022/09/07 09:59:24;;;;;;;15.38;12.68;;;23.90;99.90;;;;;;5103897;28;20047;-72
2022/09/07 10:01:52;;;;;;;14.85;12.48;;;23.70;99.90;;;;;;5095725;28;20047;-72
2022/09/07 10:04:26;;;;;;;18.10;13.27;;;23.30;99.90;;;;;;5101457;28;20119;-72
2022/09/07 10:06:55;;;;;;;15.85;12.27;;;23.20;99.90;;;;;;5112504;28;20046;-72
2022/09/07 10:09:26;;;;;;;11.65;10.35;;;23.80;99.90;;;;;;5113575;28;20052;-74
2022/09/07 10:11:58;;;;;;;11.80;9.63;;;24.30;99.90;;;;;;5111904;28;20047;-73
2022/09/07 10:14:29;;;;;;;10.45;8.80;;;24.60;99.90;;;;;;5129829;27;20055;-73
2022/09/07 10:16:58;;;;;;;9.45;8.45;;;25.30;99.90;;;;;;5113707;28;20051;-72
2022/09/07 10:19:33;;;;;;;8.95;7.85;;;25.70;99.90;;;;;;5106605;28;20055;-72
2022/09/07 10:22:02;;;;;;;8.50;6.28;;;26.20;99.90;;;;;;5095319;28;20101;-70
2022/09/07 10:24:35;;;;;;;10.07;6.97;;;26.20;99.90;;;;;;5097986;27;20047;-72
2022/09/07 10:27:19;;;;;;;7.95;6.75;;;25.80;99.90;;;;;;5099219;28;20059;-74
2022/09/07 10:29:46;;;;;;;7.13;6.38;;;25.60;99.90;;;;;;5113050;28;20510;-74
2022/09/07 10:32:38;;;;;;;8.40;6.93;;;25.40;99.90;;;;;;5113358;27;20551;-73
2022/09/07 10:35:15;;;;;;;8.05;6.90;;;25.30;99.90;;;;;;5130514;27;20081;-73
2022/09/07 10:37:53;;;;;;;7.93;6.47;;;25.40;99.90;;;;;;5134046;27;20544;-72
2022/09/07 10:40:33;;;;;;;6.32;5.65;;;25.30;99.90;;;;;;5134475;27;20502;-73
2022/09/07 10:43:18;;;;;;;6.93;5.72;;;25.60;99.90;;;;;;5134930;27;20043;-72
2022/09/07 10:45:59;;;;;;;7.28;5.50;;;25.90;99.90;;;;;;5134821;27;20051;-73
2022/09/07 10:48:37;;;;;;;6.45;5.78;;;26.60;99.90;;;;;;5115375;27;20039;-72
2022/09/07 10:51:09;;;;;;;6.05;5.43;;;27.10;99.90;;;;;;5116618;27;20055;-73
2022/09/07 10:53:42;;;;;;;7.80;5.95;;;28.00;99.90;;;;;;5134744;27;20055;-73
2022/09/07 10:56:12;;;;;;;7.50;5.53;;;28.40;99.90;;;;;;5115878;27;20084;-73
2022/09/07 10:58:55;;;;;;;5.50;4.82;;;28.40;99.90;;;;;;5116075;27;20043;-72
2022/09/07 11:01:32;;;;;;;6.35;4.82;;;28.00;98.70;;;;;;5134621;27;20051;-73
2022/09/07 11:04:16;;;;;;;7.47;5.20;;;27.50;99.90;;;;;;5116034;27;20486;-72
2022/09/07 11:06:46;;;;;;;5.85;5.00;;;26.90;99.90;;;;;;5134711;27;20086;-73
2022/09/07 11:09:41;;;;;;;7.57;5.28;;;27.00;99.90;;;;;;5133517;27;20058;-73
2022/09/07 11:12:14;;;;;;;6.10;5.07;;;27.30;99.90;;;;;;5116258;27;20065;-73
2022/09/07 11:14:45;;;;;;;6.88;5.60;;;28.60;99.90;;;;;;5134085;27;20056;-73
2022/09/07 11:17:16;;;;;;;4.38;3.65;;;29.70;99.00;;;;;;5115320;28;20433;-73
2022/09/07 11:19:52;;;;;;;5.22;4.18;;;30.90;95.40;;;;;;5134291;27;20078;-73
2022/09/07 11:22:28;;;;;;;4.47;4.05;;;31.30;94.20;;;;;;5134228;27;20054;-73
2022/09/07 11:25:00;;;;;;;5.30;4.80;;;31.00;94.00;;;;;;5113134;28;20047;-73
2022/09/07 11:27:31;;;;;;;5.32;4.00;;;31.60;93.30;;;;;;5112627;28;20088;-74
2022/09/07 11:30:04;;;;;;;3.90;2.97;;;31.80;92.40;;;;;;5111552;28;20069;-75
2022/09/07 11:32:35;;;;;;;4.55;3.45;;;32.00;91.90;;;;;;5112584;28;20403;-73
2022/09/07 11:35:07;;;;;;;4.50;3.15;;;32.30;90.10;;;;;;5113450;28;20047;-73
2022/09/07 11:37:41;;;;;;;4.18;2.65;;;32.80;89.10;;;;;;5111600;28;20104;-74
2022/09/07 11:40:20;;;;;;;4.07;3.13;;;33.10;89.40;;;;;;5113226;28;20526;-75
2022/09/07 11:42:51;;;;;;;3.45;2.90;;;33.80;87.50;;;;;;5112331;28;20055;-74
2022/09/07 11:45:25;;;;;;;3.58;2.50;;;33.70;84.40;;;;;;5112535;28;20552;-75
2022/09/07 11:47:58;;;;;;;3.45;1.80;;;33.40;82.80;;;;;;5113121;28;20040;-74
2022/09/07 11:50:29;;;;;;;4.35;2.03;;;33.10;84.10;;;;;;5111924;28;20130;-74
2022/09/07 11:53:00;;;;;;;3.45;2.05;;;33.60;83.40;;;;;;5112504;28;20448;-74
2022/09/07 11:55:31;;;;;;;2.47;1.67;;;33.80;81.90;;;;;;5113178;28;20055;-74
2022/09/07 11:58:21;;;;;;;3.15;1.67;;;34.20;82.30;;;;;;5111287;28;20058;-74
2022/09/07 12:00:58;;;;;;;2.47;1.60;;;34.40;82.50;;;;;;5113044;28;20105;-74
2022/09/07 12:03:56;;;;;;;2.10;1.48;;;34.70;80.60;;;;;;5112021;28;20401;-74
2022/09/07 12:07:01;;;;;;;3.92;1.63;;;34.80;80.50;;;;;;5112359;28;20051;-74
2022/09/07 12:09:44;;;;;;;5.47;1.65;;;35.40;75.00;;;;;;5113110;28;20040;-75
2022/09/07 12:12:38;;;;;;;5.03;1.52;;;35.40;76.40;;;;;;5112605;28;20055;-73
2022/09/07 12:15:19;;;;;;;4.15;1.80;;;33.30;76.60;;;;;;5111682;28;20059;-74
2022/09/07 12:18:01;;;;;;;2.63;1.40;;;32.00;78.20;;;;;;5112977;28;20051;-73
2022/09/07 12:20:38;;;;;;;2.90;1.60;;;30.60;79.50;;;;;;5111238;28;20051;-74
2022/09/07 12:23:20;;;;;;;5.20;1.33;;;30.40;80.90;;;;;;5110296;28;20058;-73
2022/09/07 12:25:48;;;;;;;4.68;1.40;;;30.70;81.90;;;;;;5094564;28;20079;-73
2022/09/07 12:28:16;;;;;;;2.25;1.00;;;31.60;80.40;;;;;;5112113;28;20059;-73
2022/09/07 12:30:56;;;;;;;2.03;1.15;;;32.40;79.50;;;;;;5094598;28;20097;-74
2022/09/07 12:33:30;;;;;;;2.17;1.10;;;33.00;77.40;;;;;;5093786;28;20100;-74
2022/09/07 12:35:59;;;;;;;2.75;1.10;;;33.40;77.30;;;;;;5094807;28;20055;-74
2022/09/07 12:38:53;;;;;;;;;;;33.50;76.10;;;;;;5097361;28;20048;-73
2022/09/07 12:41:24;;;;;;;2.10;1.52;;;33.30;74.60;;;;;;5115073;28;19992;-74
2022/09/07 12:44:07;;;;;;;2.17;0.80;;;33.60;76.50;;;;;;5116774;28;20055;-74
2022/09/07 12:46:47;;;;;;;1.83;1.10;;;33.80;75.20;;;;;;5098586;28;20054;-74
2022/09/07 12:49:43;;;;;;;2.00;1.13;;;33.50;75.40;;;;;;5116172;28;20070;-74
2022/09/07 12:52:27;;;;;;;2.45;1.25;;;33.30;74.20;;;;;;5072034;28;20064;-74
2022/09/07 12:55:02;;;;;;;4.30;1.70;;;33.90;76.50;;;;;;5097500;28;20507;-73
2022/09/07 12:57:39;;;;;;;2.97;1.30;;;33.30;74.70;;;;;;5116623;28;20062;-74